Portada
METAR-TAF:

METAR-TAF

Aeropuertos :

Koror, Babelthuap Island, Palaos

Aeropuerto Internacional Roman Tmetuchl

latitud: 07-22N, longitud: 134-32E, altitud: 54 m

Observación

El informe se hizo hace 30 minutos, a las 23:50 UTC
Viento calma
Temperatura 26°C
Humedad 94%
Presión 1012 hPa
Visibilidad: 20.9 km
Cielo nuboso a una altura de 1500 ft, Cumulus congestus.
Cielo nuboso a una altura de 11000 ft
Cielo cubierto a una altura de 29000 ft

METAR: PTRO 252350Z 00000KT 13SM BKN015TCU BKN110 OVC290 26/25 A2989 RMK TCU ALQDS

Hora: 09:20 (00:20 UTC)

Pronóstico

El informe se hizo hace 52 minutos, a las 23:28 UTC
Pronóstico válido del 26 a las 00 UTC al 26 a las 24 UTC
Viento 5 kt del sur-suroeste
Visibilidad: 10 km
Nubes dispersas a una altura de 1600 ft
Nubes dispersas a una altura de 7000 ft
Cielo cubierto a una altura de 12000 ft
chaparrones en las proximidades

TAF: PTRO 252328Z 2600/2624 20005KT P6SM VCSH SCT016 SCT070 OVC120

Observaciones y pronósticos meteorológicos de más de 4000 aeropuertos (mensajes METAR y TAF).

Los puntos amarillos y rojos representan las estaciones disponibles.

Ponga el ratón en el punto deseado para ver el nombre de la estación.

Haga clic para ver las observaciones y los pronósticos meteorológicos.

Para cambiar el mapa : haga clic en los botones verdes con una cruz de color negro para hacer un zoom, en el botón verde con un guión para alejar o en las flechas verdes para mapas adyacentes.


METAR-TAF: